createdAt,value
2023-02-25T00:00:46.232Z,6.53
2023-02-25T00:01:58.076Z,6.28
2023-02-25T00:02:47.288Z,6.28
2023-02-25T00:03:46.312Z,6.48
2023-02-25T00:04:46.169Z,6.40
2023-02-25T00:05:46.178Z,6.32
2023-02-25T00:06:46.256Z,6.43
2023-02-25T00:07:46.140Z,6.50
2023-02-25T00:08:46.214Z,6.47
2023-02-25T00:09:46.125Z,6.68
2023-02-25T00:10:46.114Z,6.54
2023-02-25T00:11:46.105Z,6.22
2023-02-25T00:12:46.133Z,6.30
2023-02-25T00:13:46.106Z,6.18
2023-02-25T00:14:46.161Z,6.21
2023-02-25T00:15:46.082Z,6.35
2023-02-25T00:16:46.140Z,6.36
2023-02-25T00:17:46.021Z,6.43
2023-02-25T00:18:46.037Z,6.43
2023-02-25T00:19:46.007Z,6.59
2023-02-25T00:20:46.036Z,6.77
2023-02-25T00:21:45.992Z,6.83
2023-02-25T00:22:45.972Z,6.54
2023-02-25T00:23:45.976Z,6.61
2023-02-25T00:24:45.942Z,6.36
2023-02-25T00:25:45.940Z,6.30
2023-02-25T00:26:45.949Z,6.30
2023-02-25T00:27:45.904Z,6.43
2023-02-25T00:28:45.908Z,6.63
2023-02-25T00:29:45.933Z,6.69
2023-02-25T00:30:45.947Z,6.87
2023-02-25T00:31:46.033Z,6.63
2023-02-25T00:32:45.947Z,6.40
2023-02-25T00:33:45.894Z,6.41
2023-02-25T00:34:45.834Z,6.46
2023-02-25T00:35:45.835Z,6.38
2023-02-25T00:36:45.842Z,6.56
2023-02-25T00:37:45.798Z,6.61
2023-02-25T00:38:45.796Z,6.54
2023-02-25T00:39:45.933Z,6.47
2023-02-25T00:40:45.797Z,6.50
2023-02-25T00:41:45.775Z,6.72
2023-02-25T00:42:45.736Z,6.68
2023-02-25T00:43:45.726Z,6.61
2023-02-25T00:44:45.724Z,6.51
2023-02-25T00:45:45.708Z,6.40
2023-02-25T00:46:45.812Z,6.48
2023-02-25T00:47:45.701Z,6.26
2023-02-25T00:48:45.678Z,6.43
2023-02-25T00:49:45.665Z,6.53
2023-02-25T00:50:45.673Z,6.71
2023-02-25T00:51:45.628Z,6.86
2023-02-25T00:52:45.649Z,6.54
2023-02-25T00:53:45.612Z,6.71
2023-02-25T00:54:45.652Z,6.43
2023-02-25T00:55:45.588Z,6.40
2023-02-25T00:56:45.592Z,6.44
2023-02-25T00:57:45.602Z,6.29
2023-02-25T00:58:45.557Z,6.10
2023-02-25T00:59:45.594Z,6.33
2023-02-25T01:00:51.494Z,6.26
2023-02-25T01:01:46.565Z,6.48
2023-02-25T01:02:45.612Z,6.28
2023-02-25T01:03:45.530Z,6.19
2023-02-25T01:04:45.489Z,6.26
2023-02-25T01:05:45.468Z,6.26
2023-02-25T01:06:45.462Z,6.51
2023-02-25T01:07:45.457Z,6.40
2023-02-25T01:08:45.435Z,6.30
2023-02-25T01:09:45.467Z,6.38
2023-02-25T01:10:45.406Z,6.19
2023-02-25T01:11:45.408Z,6.43
2023-02-25T01:12:45.436Z,6.43
2023-02-25T01:13:45.413Z,6.54
2023-02-25T01:14:45.374Z,6.33
2023-02-25T01:15:45.442Z,6.38
2023-02-25T01:16:45.351Z,6.59
2023-02-25T01:17:45.517Z,6.44
2023-02-25T01:18:45.348Z,6.50
2023-02-25T01:19:45.306Z,6.66
2023-02-25T01:20:45.295Z,6.48
2023-02-25T01:21:45.319Z,6.48
2023-02-25T01:22:45.268Z,6.30
2023-02-25T01:23:45.269Z,6.30
2023-02-25T01:24:45.259Z,6.29
2023-02-25T01:25:45.240Z,6.48
2023-02-25T01:26:45.260Z,6.50
2023-02-25T01:27:45.228Z,6.58
2023-02-25T01:28:45.201Z,6.33
2023-02-25T01:29:45.191Z,6.25
2023-02-25T01:30:45.209Z,6.43
2023-02-25T01:31:45.322Z,6.36
2023-02-25T01:32:45.233Z,6.40
2023-02-25T01:33:45.162Z,6.30
2023-02-25T01:34:45.141Z,6.21
2023-02-25T01:35:45.134Z,6.28
2023-02-25T01:36:45.114Z,6.26
2023-02-25T01:37:45.103Z,6.19
2023-02-25T01:38:45.115Z,6.30
2023-02-25T01:39:45.075Z,6.38
2023-02-25T01:40:45.094Z,6.33
2023-02-25T01:41:45.053Z,6.38
2023-02-25T01:42:45.052Z,6.16
2023-02-25T01:43:45.035Z,6.22
2023-02-25T01:44:45.045Z,6.29
2023-02-25T01:45:45.022Z,6.41
2023-02-25T01:46:45.092Z,6.40
2023-02-25T01:47:44.993Z,6.29
2023-02-25T01:48:44.967Z,6.19
2023-02-25T01:49:45.020Z,6.26
2023-02-25T01:50:44.967Z,6.11
2023-02-25T01:51:44.935Z,6.36
2023-02-25T01:52:44.934Z,6.40
2023-02-25T01:53:44.940Z,6.36
2023-02-25T01:54:44.955Z,6.25
2023-02-25T01:55:44.930Z,6.14
2023-02-25T01:56:44.927Z,6.25
2023-02-25T01:57:44.875Z,6.41
2023-02-25T01:58:44.915Z,6.38
2023-02-25T01:59:44.853Z,6.18
2023-02-25T02:00:44.921Z,6.36
2023-02-25T02:01:44.901Z,6.40
2023-02-25T02:02:44.862Z,6.56
2023-02-25T02:03:44.820Z,6.32
2023-02-25T02:04:44.815Z,6.41
2023-02-25T02:05:44.782Z,6.51
2023-02-25T02:06:44.777Z,6.61
2023-02-25T02:07:44.845Z,6.35
2023-02-25T02:08:44.763Z,6.28
2023-02-25T02:09:44.737Z,6.25
2023-02-25T02:10:44.739Z,6.16
2023-02-25T02:11:44.727Z,6.28
2023-02-25T02:12:44.701Z,6.40
2023-02-25T02:13:44.739Z,6.54
2023-02-25T02:14:44.687Z,6.41
2023-02-25T02:15:44.668Z,6.28
2023-02-25T02:16:44.801Z,6.22
2023-02-25T02:17:44.649Z,6.29
2023-02-25T02:18:44.703Z,6.16
2023-02-25T02:19:44.619Z,6.21
2023-02-25T02:20:44.617Z,6.04
2023-02-25T02:21:44.602Z,6.09
2023-02-25T02:22:44.601Z,6.30
2023-02-25T02:23:44.579Z,6.38
2023-02-25T02:24:44.633Z,6.25
2023-02-25T02:25:44.580Z,6.26
2023-02-25T02:26:44.558Z,6.35
2023-02-25T02:27:44.543Z,6.16
2023-02-25T02:28:44.528Z,6.25
2023-02-25T02:29:44.531Z,6.25
2023-02-25T02:30:44.583Z,6.33
2023-02-25T02:31:44.674Z,6.53
2023-02-25T02:32:44.541Z,6.33
2023-02-25T02:33:44.488Z,6.11
2023-02-25T02:34:44.489Z,6.19
2023-02-25T02:35:44.447Z,6.22
2023-02-25T02:36:44.460Z,6.32
2023-02-25T02:37:44.434Z,6.29
2023-02-25T02:38:44.413Z,6.19
2023-02-25T02:39:44.432Z,6.25
2023-02-25T02:40:44.390Z,6.11
2023-02-25T02:41:44.410Z,6.11
2023-02-25T02:42:44.371Z,6.25
2023-02-25T02:43:44.349Z,6.14
2023-02-25T02:44:44.339Z,6.09
2023-02-25T02:45:44.422Z,6.29
2023-02-25T02:46:44.328Z,6.28
2023-02-25T02:47:44.337Z,6.30
2023-02-25T02:48:44.287Z,6.36
2023-02-25T02:49:44.287Z,6.35
2023-02-25T02:50:44.269Z,6.07
2023-02-25T02:51:44.273Z,6.18
2023-02-25T02:52:44.247Z,5.93
2023-02-25T02:53:44.249Z,5.88
2023-02-25T02:54:44.233Z,5.96
2023-02-25T02:55:44.205Z,6.09
2023-02-25T02:56:44.200Z,6.25
2023-02-25T02:57:44.197Z,6.03
2023-02-25T02:58:44.190Z,5.96
2023-02-25T02:59:44.357Z,5.92
2023-02-25T03:00:44.198Z,6.14
2023-02-25T03:01:44.135Z,6.14
2023-02-25T03:02:44.127Z,6.21
2023-02-25T03:03:44.163Z,6.22
2023-02-25T03:04:44.100Z,6.16
2023-02-25T03:05:44.174Z,6.04
2023-02-25T03:06:44.118Z,6.19
2023-02-25T03:07:44.072Z,6.10
2023-02-25T03:08:44.064Z,6.14
2023-02-25T03:09:44.041Z,6.19
2023-02-25T03:10:44.058Z,6.14
2023-02-25T03:11:44.052Z,6.13
2023-02-25T03:12:44.028Z,6.14
2023-02-25T03:13:44.042Z,6.04
2023-02-25T03:14:44.004Z,5.98
2023-02-25T03:15:44.005Z,5.95
2023-02-25T03:16:44.014Z,6.13
2023-02-25T03:17:43.956Z,6.21
2023-02-25T03:18:43.943Z,6.11
2023-02-25T03:19:44.009Z,6.10
2023-02-25T03:20:43.927Z,6.18
2023-02-25T03:21:43.923Z,6.07
2023-02-25T03:22:43.932Z,6.13
2023-02-25T03:23:43.890Z,6.00
2023-02-25T03:24:43.867Z,5.89
2023-02-25T03:25:43.862Z,5.89
2023-02-25T03:26:43.852Z,6.10
2023-02-25T03:27:43.840Z,6.11
2023-02-25T03:28:43.868Z,6.26
2023-02-25T03:29:43.816Z,6.30
2023-02-25T03:30:43.829Z,6.11
2023-02-25T03:31:43.893Z,6.14
2023-02-25T03:32:43.843Z,6.21
2023-02-25T03:33:43.772Z,6.04
2023-02-25T03:34:43.832Z,6.33
2023-02-25T03:35:43.761Z,6.19
2023-02-25T03:36:43.732Z,6.11
2023-02-25T03:37:43.727Z,6.16
2023-02-25T03:38:43.716Z,6.18
2023-02-25T03:39:43.696Z,6.32
2023-02-25T03:40:43.728Z,6.46
2023-02-25T03:41:43.697Z,6.18
2023-02-25T03:42:43.689Z,6.30
2023-02-25T03:43:43.660Z,6.41
2023-02-25T03:44:43.638Z,6.22
2023-02-25T03:45:43.682Z,6.19
2023-02-25T03:46:43.654Z,6.22
2023-02-25T03:47:43.624Z,6.26
2023-02-25T03:48:43.626Z,6.21
2023-02-25T03:49:43.606Z,6.18
2023-02-25T03:50:43.575Z,6.30
2023-02-25T03:51:43.581Z,6.28
2023-02-25T03:52:43.549Z,6.07
2023-02-25T03:53:43.538Z,6.01
2023-02-25T03:54:43.553Z,6.06
2023-02-25T03:55:43.516Z,6.06
2023-02-25T03:56:43.513Z,5.95
2023-02-25T03:57:43.515Z,6.00
2023-02-25T03:58:43.479Z,5.93
2023-02-25T03:59:43.492Z,6.03
2023-02-25T04:00:43.451Z,6.16
2023-02-25T04:01:43.447Z,5.95
2023-02-25T04:02:43.481Z,5.75
2023-02-25T04:03:43.462Z,5.96
2023-02-25T04:04:43.480Z,5.89
2023-02-25T04:05:43.396Z,5.85
2023-02-25T04:06:43.378Z,5.91
2023-02-25T04:07:43.373Z,5.91
2023-02-25T04:08:43.377Z,5.73
2023-02-25T04:09:43.368Z,5.83
2023-02-25T04:10:43.361Z,5.85
2023-02-25T04:11:43.334Z,5.81
2023-02-25T04:12:43.323Z,5.86
2023-02-25T04:13:43.293Z,5.98
2023-02-25T04:14:43.283Z,5.95
2023-02-25T04:15:43.334Z,5.88
2023-02-25T04:16:43.273Z,5.91
2023-02-25T04:17:43.290Z,5.93
2023-02-25T04:18:43.271Z,5.82
2023-02-25T04:19:43.225Z,5.89
2023-02-25T04:20:43.244Z,5.82
2023-02-25T04:21:43.216Z,5.70
2023-02-25T04:22:43.193Z,5.67
2023-02-25T04:23:43.192Z,5.67
2023-02-25T04:24:43.174Z,5.81
2023-02-25T04:25:43.154Z,5.81
2023-02-25T04:26:43.191Z,5.66
2023-02-25T04:27:43.146Z,5.64
2023-02-25T04:28:43.117Z,5.48
2023-02-25T04:29:43.116Z,5.60
2023-02-25T04:30:43.142Z,5.57
2023-02-25T04:31:43.335Z,5.75
2023-02-25T04:32:43.145Z,5.77
2023-02-25T04:33:43.068Z,5.75
2023-02-25T04:34:43.062Z,5.81
2023-02-25T04:35:43.041Z,5.86
2023-02-25T04:36:43.052Z,6.09
2023-02-25T04:37:43.030Z,5.98
2023-02-25T04:38:43.019Z,5.95
2023-02-25T04:39:42.996Z,5.82
2023-02-25T04:40:42.996Z,5.71
2023-02-25T04:41:42.978Z,5.85
2023-02-25T04:42:42.957Z,5.75
2023-02-25T04:43:43.076Z,5.41
2023-02-25T04:44:42.941Z,5.59
2023-02-25T04:45:42.939Z,5.73
2023-02-25T04:46:42.978Z,5.52
2023-02-25T04:47:42.909Z,5.63
2023-02-25T04:48:42.892Z,5.82
2023-02-25T04:49:42.936Z,5.75
2023-02-25T04:50:42.862Z,5.70
2023-02-25T04:51:42.861Z,5.53
2023-02-25T04:52:42.884Z,5.63
2023-02-25T04:53:42.832Z,5.50
2023-02-25T04:54:42.850Z,5.60
2023-02-25T04:55:42.814Z,5.71
2023-02-25T04:56:42.826Z,5.83
2023-02-25T04:57:42.827Z,5.89
2023-02-25T04:58:42.800Z,5.70
2023-02-25T04:59:42.769Z,5.56
2023-02-25T05:00:42.780Z,5.45
2023-02-25T05:01:42.824Z,5.50
2023-02-25T05:02:42.741Z,5.46
2023-02-25T05:03:42.724Z,5.53
2023-02-25T05:04:42.882Z,5.59
2023-02-25T05:05:42.715Z,5.73
2023-02-25T05:06:42.712Z,5.68
2023-02-25T05:07:42.682Z,5.71
2023-02-25T05:08:42.728Z,5.67
2023-02-25T05:09:42.672Z,5.75
2023-02-25T05:10:42.657Z,5.81
2023-02-25T05:11:42.654Z,5.83
2023-02-25T05:12:42.653Z,5.86
2023-02-25T05:13:42.654Z,5.66
2023-02-25T05:14:42.683Z,5.49
2023-02-25T05:15:42.738Z,5.64
2023-02-25T05:16:42.635Z,5.73
2023-02-25T05:17:42.620Z,5.70
2023-02-25T05:18:42.560Z,5.66
2023-02-25T05:19:42.553Z,5.64
2023-02-25T05:20:42.608Z,5.77
2023-02-25T05:21:42.531Z,5.73
2023-02-25T05:22:42.517Z,5.60
2023-02-25T05:23:42.518Z,5.73
2023-02-25T05:24:42.484Z,5.74
2023-02-25T05:25:42.499Z,5.85
2023-02-25T05:26:42.504Z,5.85
2023-02-25T05:27:42.482Z,5.82
2023-02-25T05:28:42.493Z,5.85
2023-02-25T05:29:42.556Z,5.77
2023-02-25T05:30:42.620Z,5.88
2023-02-25T05:31:42.524Z,5.74
2023-02-25T05:32:42.508Z,5.85
2023-02-25T05:33:42.406Z,5.78
2023-02-25T05:34:42.456Z,5.67
2023-02-25T05:35:42.379Z,5.77
2023-02-25T05:36:42.349Z,5.81
2023-02-25T05:37:42.385Z,5.83
2023-02-25T05:38:42.331Z,5.74
2023-02-25T05:39:42.314Z,5.77
2023-02-25T05:40:42.350Z,5.83
2023-02-25T05:41:42.287Z,5.91
2023-02-25T05:42:42.287Z,5.89
2023-02-25T05:43:42.275Z,5.78
2023-02-25T05:44:42.294Z,5.77
2023-02-25T05:45:42.286Z,5.86
2023-02-25T05:46:42.324Z,5.73
2023-02-25T05:47:42.244Z,5.74
2023-02-25T05:48:42.233Z,5.75
2023-02-25T05:49:42.218Z,5.88
2023-02-25T05:50:42.200Z,5.91
2023-02-25T05:51:42.188Z,5.75
2023-02-25T05:52:42.167Z,5.68
2023-02-25T05:53:42.221Z,5.56
2023-02-25T05:54:42.168Z,5.53
2023-02-25T05:55:42.186Z,5.59
2023-02-25T05:56:42.128Z,5.55
2023-02-25T05:57:42.155Z,5.64
2023-02-25T05:58:42.090Z,5.57
2023-02-25T05:59:42.105Z,5.49
2023-02-25T06:00:42.078Z,5.59
2023-02-25T06:01:42.154Z,5.43
2023-02-25T06:02:42.087Z,5.50
2023-02-25T06:03:42.080Z,5.57
2023-02-25T06:04:42.025Z,5.60
2023-02-25T06:05:42.033Z,5.75
2023-02-25T06:06:42.016Z,5.70
2023-02-25T06:07:41.998Z,5.73
2023-02-25T06:08:42.001Z,5.75
2023-02-25T06:09:42.103Z,5.55
2023-02-25T06:10:41.962Z,5.53
2023-02-25T06:11:41.974Z,5.63
2023-02-25T06:12:41.930Z,5.60
2023-02-25T06:13:41.932Z,5.49
2023-02-25T06:14:41.966Z,5.63
2023-02-25T06:15:41.997Z,5.56
2023-02-25T06:16:42.003Z,5.55
2023-02-25T06:17:41.918Z,5.67
2023-02-25T06:18:41.881Z,5.56
2023-02-25T06:19:41.850Z,5.56
2023-02-25T06:20:41.831Z,5.71
2023-02-25T06:21:41.851Z,5.57
2023-02-25T06:22:41.829Z,5.70
2023-02-25T06:23:41.862Z,5.66
2023-02-25T06:24:41.797Z,5.49
2023-02-25T06:25:41.766Z,5.56
2023-02-25T06:26:41.876Z,5.66
2023-02-25T06:27:42.054Z,5.43
2023-02-25T06:28:41.800Z,5.63
2023-02-25T06:29:41.939Z,5.49
2023-02-25T06:30:41.903Z,5.60
2023-02-25T06:31:41.868Z,5.59
2023-02-25T06:32:41.794Z,5.59
2023-02-25T06:33:41.709Z,5.64
2023-02-25T06:34:41.738Z,5.71
2023-02-25T06:35:41.712Z,5.64
2023-02-25T06:36:41.732Z,5.77
2023-02-25T06:37:41.639Z,5.91
2023-02-25T06:38:41.656Z,5.95
2023-02-25T06:39:41.610Z,5.70
2023-02-25T06:40:41.601Z,5.57
2023-02-25T06:41:41.651Z,5.89
2023-02-25T06:42:41.627Z,5.85
2023-02-25T06:43:41.590Z,5.74
2023-02-25T06:44:41.592Z,5.60
2023-02-25T06:45:41.576Z,5.75
2023-02-25T06:46:41.622Z,5.85
2023-02-25T06:47:41.542Z,5.78
2023-02-25T06:48:41.513Z,5.78
2023-02-25T06:49:41.583Z,5.66
2023-02-25T06:50:41.508Z,5.93
2023-02-25T06:51:41.481Z,5.86
2023-02-25T06:52:41.464Z,5.74
2023-02-25T06:53:41.516Z,5.88
2023-02-25T06:54:41.441Z,5.96
2023-02-25T06:55:41.441Z,5.95
2023-02-25T06:56:41.480Z,5.88
2023-02-25T06:57:41.404Z,6.04
2023-02-25T06:58:41.439Z,6.00
2023-02-25T06:59:41.382Z,6.06
2023-02-25T07:00:41.392Z,6.00
2023-02-25T07:01:41.411Z,6.13
2023-02-25T07:02:41.394Z,6.04
2023-02-25T07:03:41.334Z,5.89
2023-02-25T07:04:43.804Z,6.06
2023-02-25T07:05:41.326Z,6.07
2023-02-25T07:06:41.349Z,6.00
2023-02-25T07:07:41.332Z,6.19
2023-02-25T07:08:41.272Z,6.18
2023-02-25T07:09:41.281Z,6.18
2023-02-25T07:10:41.290Z,6.11
2023-02-25T07:11:41.254Z,6.16
2023-02-25T07:12:41.243Z,6.16
2023-02-25T07:13:41.265Z,6.32
2023-02-25T07:14:41.272Z,6.25
2023-02-25T07:15:41.254Z,6.43
2023-02-25T07:16:41.206Z,6.38
2023-02-25T07:17:41.184Z,6.25
2023-02-25T07:18:41.172Z,6.40
2023-02-25T07:19:41.204Z,6.30
2023-02-25T07:20:41.143Z,6.22
2023-02-25T07:21:41.132Z,6.29
2023-02-25T07:22:41.194Z,6.29
2023-02-25T07:23:41.130Z,6.28
2023-02-25T07:24:41.132Z,6.21
2023-02-25T07:25:41.111Z,6.30
2023-02-25T07:26:41.082Z,6.35
2023-02-25T07:27:43.539Z,6.41
2023-02-25T07:28:41.078Z,6.58
2023-02-25T07:29:41.057Z,6.47
2023-02-25T07:30:41.124Z,6.53
2023-02-25T07:31:41.208Z,6.38
2023-02-25T07:32:41.233Z,6.38
2023-02-25T07:33:40.992Z,6.44
2023-02-25T07:34:40.996Z,6.47
2023-02-25T07:35:41.053Z,6.56
2023-02-25T07:36:40.995Z,6.38
2023-02-25T07:37:40.954Z,6.33
2023-02-25T07:38:40.953Z,6.44
2023-02-25T07:39:40.953Z,6.43
2023-02-25T07:40:40.939Z,6.35
2023-02-25T07:41:40.981Z,6.41
2023-02-25T07:42:40.936Z,6.28
2023-02-25T07:43:40.896Z,6.30
2023-02-25T07:44:40.890Z,6.40
2023-02-25T07:45:40.905Z,6.44
2023-02-25T07:46:40.865Z,6.50
2023-02-25T07:47:40.866Z,6.69
2023-02-25T07:48:40.949Z,6.38
2023-02-25T07:49:40.841Z,6.50
2023-02-25T07:50:40.829Z,6.58
2023-02-25T07:51:40.813Z,6.44
2023-02-25T07:52:40.805Z,6.53
2023-02-25T07:53:40.823Z,6.35
2023-02-25T07:54:40.794Z,6.53
2023-02-25T07:55:40.761Z,6.29
2023-02-25T07:56:40.774Z,6.30
2023-02-25T07:57:40.746Z,6.22
2023-02-25T07:58:40.760Z,6.33
2023-02-25T07:59:40.751Z,6.33
2023-02-25T08:00:40.704Z,6.19
2023-02-25T08:01:40.739Z,6.54
2023-02-25T08:02:40.757Z,6.51
2023-02-25T08:03:40.673Z,6.43
2023-02-25T08:04:40.742Z,6.41
2023-02-25T08:05:40.682Z,6.51
2023-02-25T08:06:40.647Z,6.61
2023-02-25T08:07:40.635Z,6.53
2023-02-25T08:08:40.627Z,6.41
2023-02-25T08:09:40.612Z,6.35
2023-02-25T08:10:40.601Z,6.43
2023-02-25T08:11:40.645Z,6.43
2023-02-25T08:12:40.566Z,6.58
2023-02-25T08:13:40.577Z,6.65
2023-02-25T08:14:40.561Z,6.48
2023-02-25T08:15:40.610Z,6.50
2023-02-25T08:16:40.525Z,6.63
2023-02-25T08:17:40.556Z,6.71
2023-02-25T08:18:40.528Z,6.76
2023-02-25T08:19:40.503Z,6.84
2023-02-25T08:20:40.486Z,6.69
2023-02-25T08:21:40.548Z,6.53
2023-02-25T08:22:40.472Z,6.77
2023-02-25T08:23:40.476Z,6.62
2023-02-25T08:24:40.446Z,6.68
2023-02-25T08:25:40.464Z,6.71
2023-02-25T08:26:40.424Z,6.62
2023-02-25T08:27:40.419Z,7.01
2023-02-25T08:28:40.400Z,7.05
2023-02-25T08:29:40.408Z,7.26
2023-02-25T08:30:40.384Z,7.77
2023-02-25T08:31:40.562Z,7.55
2023-02-25T08:32:40.503Z,7.32
2023-02-25T08:33:40.325Z,7.08
2023-02-25T08:34:40.326Z,7.20
2023-02-25T08:35:40.333Z,7.16
2023-02-25T08:36:40.314Z,7.22
2023-02-25T08:37:40.289Z,7.15
2023-02-25T08:38:40.284Z,6.98
2023-02-25T08:39:40.285Z,7.17
2023-02-25T08:40:40.315Z,7.32
2023-02-25T08:41:40.255Z,7.32
2023-02-25T08:42:40.229Z,7.52
2023-02-25T08:43:40.218Z,7.67
2023-02-25T08:44:40.237Z,7.62
2023-02-25T08:45:40.196Z,7.62
2023-02-25T08:46:40.383Z,7.29
2023-02-25T08:47:40.177Z,7.20
2023-02-25T08:48:40.187Z,7.45
2023-02-25T08:49:40.155Z,7.27
2023-02-25T08:50:40.139Z,7.17
2023-02-25T08:51:40.134Z,7.16
2023-02-25T08:52:42.175Z,7.01
2023-02-25T08:53:40.094Z,7.29
2023-02-25T08:54:40.089Z,7.17
2023-02-25T08:55:40.087Z,7.08
2023-02-25T08:56:40.074Z,7.12
2023-02-25T08:57:40.119Z,7.32
2023-02-25T08:58:40.086Z,7.19
2023-02-25T08:59:40.033Z,7.71
2023-02-25T09:00:40.067Z,7.49
2023-02-25T09:01:40.015Z,7.38
2023-02-25T09:02:40.009Z,7.52
2023-02-25T09:03:40.015Z,7.45
2023-02-25T09:04:40.087Z,7.35
2023-02-25T09:05:39.966Z,7.26
2023-02-25T09:06:39.944Z,7.45
2023-02-25T09:07:39.939Z,7.55
2023-02-25T09:08:39.973Z,7.50
2023-02-25T09:09:39.936Z,7.69
2023-02-25T09:10:49.970Z,7.82
2023-02-25T09:11:40.931Z,7.97
2023-02-25T09:12:39.890Z,8.10
2023-02-25T09:13:43.571Z,8.35
2023-02-25T09:14:39.937Z,8.18
2023-02-25T09:15:43.897Z,8.39
2023-02-25T09:16:40.269Z,8.28
2023-02-25T09:17:39.843Z,8.20
2023-02-25T09:18:39.846Z,8.10
2023-02-25T09:19:39.798Z,7.96
2023-02-25T09:20:39.836Z,8.11
2023-02-25T09:21:39.786Z,8.07
2023-02-25T09:22:39.778Z,7.90
2023-02-25T09:23:39.765Z,7.93
2023-02-25T09:24:39.765Z,7.62
2023-02-25T09:25:39.741Z,7.50
2023-02-25T09:26:39.751Z,7.69
2023-02-25T09:27:39.727Z,7.50
2023-02-25T09:28:39.702Z,7.49
2023-02-25T09:29:39.708Z,7.52
2023-02-25T09:30:39.702Z,7.52
2023-02-25T09:31:39.883Z,7.49
2023-02-25T09:32:39.814Z,7.69
2023-02-25T09:33:39.657Z,7.59
2023-02-25T09:34:39.634Z,7.92
2023-02-25T09:35:39.640Z,7.63
2023-02-25T09:36:39.606Z,7.71
2023-02-25T09:37:39.610Z,7.74
2023-02-25T09:38:39.629Z,7.52
2023-02-25T09:39:39.589Z,7.55
2023-02-25T09:40:39.570Z,7.58
2023-02-25T09:41:39.579Z,7.85
2023-02-25T09:42:39.542Z,7.94
2023-02-25T09:43:39.631Z,7.63
2023-02-25T09:44:39.560Z,7.63
2023-02-25T09:45:39.532Z,7.52
2023-02-25T09:46:39.493Z,7.50
2023-02-25T09:47:39.594Z,7.53
2023-02-25T09:48:39.493Z,7.41
2023-02-25T09:49:39.516Z,7.79
2023-02-25T09:50:39.495Z,7.96
2023-02-25T09:51:39.462Z,7.99
2023-02-25T09:52:39.428Z,8.12
2023-02-25T09:53:39.520Z,7.94
2023-02-25T09:54:39.416Z,8.02
2023-02-25T09:55:39.415Z,7.89
2023-02-25T09:56:39.375Z,7.81
2023-02-25T09:57:39.364Z,7.94
2023-02-25T09:58:39.376Z,8.03
2023-02-25T09:59:39.365Z,7.85
2023-02-25T10:00:39.346Z,7.81
2023-02-25T10:01:39.361Z,7.74
2023-02-25T10:02:39.444Z,7.52
2023-02-25T10:03:39.309Z,7.56
2023-02-25T10:04:39.318Z,7.49
2023-02-25T10:05:39.304Z,7.63
2023-02-25T10:06:39.306Z,7.47
2023-02-25T10:07:39.291Z,7.62
2023-02-25T10:08:39.253Z,7.47
2023-02-25T10:09:39.241Z,7.66
2023-02-25T10:10:39.254Z,7.52
2023-02-25T10:11:39.220Z,7.74
2023-02-25T10:12:39.259Z,7.78
2023-02-25T10:13:39.216Z,8.17
2023-02-25T10:14:39.211Z,8.07
2023-02-25T10:15:39.174Z,7.97
2023-02-25T10:16:39.205Z,8.04
2023-02-25T10:17:39.193Z,8.28
2023-02-25T10:18:39.140Z,8.39
2023-02-25T10:19:39.152Z,8.26
2023-02-25T10:20:39.138Z,8.11
2023-02-25T10:21:39.120Z,7.77
2023-02-25T10:22:39.142Z,7.87
2023-02-25T10:23:39.086Z,7.75
2023-02-25T10:24:39.112Z,7.75
2023-02-25T10:25:39.055Z,7.99
2023-02-25T10:26:39.087Z,7.85
2023-02-25T10:27:39.093Z,8.02
2023-02-25T10:28:39.059Z,7.85
2023-02-25T10:29:39.016Z,8.04
2023-02-25T10:30:39.095Z,7.69
2023-02-25T10:31:39.157Z,7.79
2023-02-25T10:32:39.027Z,8.02
2023-02-25T10:33:38.963Z,7.82
2023-02-25T10:34:38.972Z,8.00
2023-02-25T10:35:38.954Z,7.67
2023-02-25T10:36:38.978Z,7.19
2023-02-25T10:37:38.937Z,7.16
2023-02-25T10:38:38.933Z,7.35
2023-02-25T10:39:38.902Z,6.84
2023-02-25T10:40:38.882Z,6.86
2023-02-25T10:41:38.893Z,6.43
2023-02-25T10:42:38.883Z,5.91
2023-02-25T10:43:38.859Z,5.37
2023-02-25T10:44:38.855Z,5.19
2023-02-25T10:45:38.851Z,5.23
2023-02-25T10:46:38.903Z,5.02
2023-02-25T10:47:38.879Z,5.17
2023-02-25T10:48:38.823Z,4.89
2023-02-25T10:49:38.779Z,4.62
2023-02-25T10:50:45.928Z,4.77
2023-02-25T10:51:39.764Z,4.91
2023-02-25T10:52:38.764Z,5.13
2023-02-25T10:53:38.785Z,5.05
2023-02-25T10:54:38.741Z,5.04
2023-02-25T10:55:38.730Z,5.09
2023-02-25T10:56:38.704Z,5.37
2023-02-25T10:57:38.704Z,5.22
2023-02-25T10:58:38.688Z,5.35
2023-02-25T10:59:38.692Z,5.46
2023-02-25T11:00:38.722Z,5.35
2023-02-25T11:01:38.761Z,5.48
2023-02-25T11:02:38.714Z,5.46
2023-02-25T11:03:38.738Z,5.32
2023-02-25T11:04:38.632Z,5.64
2023-02-25T11:05:38.629Z,5.34
2023-02-25T11:06:38.758Z,5.12
2023-02-25T11:07:38.575Z,5.35
2023-02-25T11:08:38.567Z,5.43
2023-02-25T11:09:38.605Z,5.45
2023-02-25T11:10:38.578Z,5.32
2023-02-25T11:11:38.557Z,5.32
2023-02-25T11:12:38.547Z,5.40
2023-02-25T11:13:38.509Z,5.41
2023-02-25T11:14:38.494Z,5.46
2023-02-25T11:15:45.360Z,5.78
2023-02-25T11:16:39.563Z,5.92
2023-02-25T11:17:38.493Z,5.89
2023-02-25T11:18:38.469Z,5.88
2023-02-25T11:19:38.453Z,5.71
2023-02-25T11:20:38.429Z,5.75
2023-02-25T11:21:38.439Z,5.56
2023-02-25T11:22:38.427Z,5.82
2023-02-25T11:23:38.397Z,6.07
2023-02-25T11:24:38.413Z,6.46
2023-02-25T11:25:38.369Z,6.65
2023-02-25T11:26:38.369Z,6.79
2023-02-25T11:27:39.430Z,7.02
2023-02-25T11:28:38.392Z,6.99
2023-02-25T11:29:38.363Z,7.01
2023-02-25T11:30:38.353Z,6.91
2023-02-25T11:31:38.468Z,6.76
2023-02-25T11:32:38.309Z,6.71
2023-02-25T11:33:38.297Z,7.16
2023-02-25T11:34:38.262Z,7.16
2023-02-25T11:35:38.259Z,7.13
2023-02-25T11:36:38.240Z,7.40
2023-02-25T11:37:39.149Z,7.60
2023-02-25T11:38:38.229Z,7.53
2023-02-25T11:39:38.250Z,7.45
2023-02-25T11:40:38.200Z,7.50
2023-02-25T11:41:38.192Z,7.24
2023-02-25T11:42:38.177Z,7.50
2023-02-25T11:43:38.160Z,7.82
2023-02-25T11:44:38.169Z,7.85
2023-02-25T11:45:38.182Z,8.11
2023-02-25T11:46:38.327Z,8.21
2023-02-25T11:47:38.142Z,7.79
2023-02-25T11:48:38.108Z,8.04
2023-02-25T11:49:38.107Z,8.21
2023-02-25T11:50:38.129Z,8.26
2023-02-25T11:51:38.076Z,7.85
2023-02-25T11:52:38.066Z,7.94
2023-02-25T11:53:38.286Z,7.74
2023-02-25T11:54:38.038Z,8.15
2023-02-25T11:55:38.048Z,8.66
2023-02-25T11:56:38.034Z,8.18
2023-02-25T11:57:37.999Z,8.12
2023-02-25T11:58:37.991Z,8.42
2023-02-25T11:59:37.996Z,8.73
2023-02-25T12:00:38.004Z,8.58
2023-02-25T12:01:38.074Z,8.65
2023-02-25T12:02:37.975Z,8.11
2023-02-25T12:03:37.942Z,8.20
2023-02-25T12:04:37.933Z,8.65
2023-02-25T12:05:37.950Z,9.01
2023-02-25T12:06:37.902Z,8.72
2023-02-25T12:07:37.945Z,8.99
2023-02-25T12:08:37.868Z,8.65
2023-02-25T12:09:37.888Z,8.45
2023-02-25T12:10:37.868Z,7.96
2023-02-25T12:11:37.850Z,8.15
2023-02-25T12:12:37.836Z,8.07
2023-02-25T12:13:37.866Z,8.26
2023-02-25T12:14:37.828Z,8.50
2023-02-25T12:15:37.805Z,8.32
2023-02-25T12:16:37.850Z,8.47
2023-02-25T12:17:37.772Z,8.40
2023-02-25T12:18:37.935Z,8.44
2023-02-25T12:19:37.759Z,8.45
2023-02-25T12:20:37.739Z,8.79
2023-02-25T12:21:37.725Z,9.09
2023-02-25T12:22:37.710Z,9.21
2023-02-25T12:23:37.740Z,8.81
2023-02-25T12:24:38.922Z,8.78
2023-02-25T12:25:37.773Z,8.79
2023-02-25T12:26:37.701Z,8.83
2023-02-25T12:27:37.670Z,8.14
2023-02-25T12:28:37.709Z,8.21
2023-02-25T12:29:37.642Z,8.62
2023-02-25T12:30:37.729Z,9.01
2023-02-25T12:31:37.649Z,9.52
2023-02-25T12:32:38.564Z,9.67
2023-02-25T12:33:37.628Z,9.09
2023-02-25T12:34:37.620Z,9.15
2023-02-25T12:35:37.576Z,9.28
2023-02-25T12:36:37.633Z,9.05
2023-02-25T12:37:37.547Z,9.23
2023-02-25T12:38:37.556Z,9.53
2023-02-25T12:39:37.522Z,9.24
2023-02-25T12:40:37.540Z,8.96
2023-02-25T12:41:37.555Z,8.96
2023-02-25T12:42:37.524Z,9.12
2023-02-25T12:43:37.489Z,9.20
2023-02-25T12:44:37.483Z,9.31
2023-02-25T12:45:37.497Z,9.10
2023-02-25T12:46:37.445Z,9.06
2023-02-25T12:47:37.446Z,9.67
2023-02-25T12:48:37.511Z,9.78
2023-02-25T12:49:37.420Z,9.64
2023-02-25T12:50:37.515Z,9.58
2023-02-25T12:51:37.385Z,10.04
2023-02-25T12:52:37.376Z,10.12
2023-02-25T12:53:37.397Z,10.14
2023-02-25T12:54:37.384Z,9.38
2023-02-25T12:55:37.367Z,9.48
2023-02-25T12:56:37.377Z,9.43
2023-02-25T12:57:37.369Z,9.78
2023-02-25T12:58:37.307Z,9.79
2023-02-25T12:59:37.353Z,9.43
2023-02-25T13:00:37.400Z,9.53
2023-02-25T13:01:37.288Z,10.06
2023-02-25T13:02:37.258Z,9.89
2023-02-25T13:03:37.305Z,9.99
2023-02-25T13:04:37.262Z,9.85
2023-02-25T13:05:37.339Z,9.63
2023-02-25T13:06:37.243Z,8.55
2023-02-25T13:07:37.224Z,8.47
2023-02-25T13:08:37.218Z,8.33
2023-02-25T13:09:37.188Z,8.18
2023-02-25T13:10:37.184Z,8.11
2023-02-25T13:11:48.310Z,7.85
2023-02-25T13:12:38.176Z,7.85
2023-02-25T13:13:37.172Z,7.78
2023-02-25T13:14:37.133Z,7.69
2023-02-25T13:15:37.120Z,7.60
2023-02-25T13:16:37.132Z,7.24
2023-02-25T13:17:37.127Z,7.62
2023-02-25T13:18:37.122Z,7.23